• Join FlightAware (Why Join?)
  • Login
  • US Flag 
06:49AM EDT


 

Airport Tracker/Info


-or-


 

Live Flight TrackerFlight Track Log ✈ N785JP ✈ 08-May-2013 ✈ KMBT - KTYS

Flight Track Log - Related Links

Times and Time Zones

All times are in EDT time to prevent confusion due to time zone crossing. See the N785JP flight status page for this flight to view local times or setup timezone preferences in your user account.

Time Position Orientation Groundspeed Altitude Reporting Facility
EDT Latitude Longitude Course Direction KTS MPH feet Rate Location/Type
12:44PM 35.9000 -86.3333 90° East 158 182 2,100  Level Nashville TRACON
12:44PM 35.9000 -86.3000 90° East 157 181 3,000 1,380 Climbing Nashville TRACON
12:45PM 35.8833 -86.2500 112° Southeast 170 196 4,400 1,260 Climbing Nashville TRACON
12:47PM 35.8678 -86.2022 112° Southeast 183 211 5,800 1,200 Climbing Memphis Center
12:48PM 35.8472 -86.1417 113° Southeast 183 211 7,000 1,320 Climbing Memphis Center
12:49PM 35.8283 -86.0786 110° East 188 216 8,500 1,440 Climbing Memphis Center
12:50PM 35.8056 -86.0236 117° Southeast 188 216 9,900 1,260 Climbing Memphis Center
12:51PM 35.7867 -85.9656 112° Southeast 183 211 11,100 1,140 Climbing Memphis Center
12:52PM 35.7806 -85.9072 97° East 183 211 12,200 900 Climbing Memphis Center
12:53PM 35.7825 -85.8458 88° East 183 211 12,900 360 Climbing Memphis Center
12:54PM 35.7836 -85.7664 89° East 189 217 13,000  Climbing Memphis Center
12:56PM 35.7878 -85.5953 88° East 232 267 13,000  Level Atlanta Center
12:57PM 35.7908 -85.5133 87° East 232 267 13,000  Level Atlanta Center
12:58PM 35.7917 -85.4289 89° East 232 267 13,000  Level Atlanta Center
12:59PM 35.7928 -85.3494 89° East 232 267 13,000  Level Atlanta Center
01:00PM 35.7936 -85.2650 89° East 232 267 13,000 -240 Level Atlanta Center
01:01PM 35.7964 -85.1806 88° East 232 267 12,600 -420 Descending Atlanta Center
01:02PM 35.7972 -85.0936 89° East 237 273 12,200 -480 Descending Atlanta Center
01:03PM 35.8000 -85.0067 88° East 237 273 11,700 -480 Descending Atlanta Center
01:04PM 35.8006 -84.9219 90° East 242 278 11,300 -600 Descending Atlanta Center
01:05PM 35.8033 -84.8375 88° East 247 284 10,600 -540 Descending Atlanta Center
01:06PM 35.8017 -84.7506 91° East 247 284 10,300 -300 Descending Atlanta Center
01:07PM 35.8042 -84.6686 88° East 247 284 10,000 -660 Descending Atlanta Center
01:08PM 35.8047 -84.5867 89° East 247 284 9,000 -960 Descending Atlanta Center
01:09PM 35.8258 -84.5100 71° East 236 272 8,100 -540 Descending Atlanta Center
01:10PM 35.8492 -84.4383 68° East 226 260 8,000 -300 Descending Atlanta Center
01:11PM 35.8722 -84.3667 68° East 226 260 7,600 -600 Descending Atlanta Center
01:12PM 35.8933 -84.2925 71° East 226 260 6,800 -840 Descending Atlanta Center
01:13PM 35.9142 -84.2233 70° East 226 260 6,000 -840 Descending Atlanta Center
01:15PM 35.8714 -84.1282 90° East  Level Estimated
01:22PM 35.8110 -83.9940 90° East  Level Estimated
01:23PM 35.8110 -83.9940 90° East  Level Estimated
01:24PM 35.8110 -83.9940 90° East  Level Estimated
01:25PM 35.8110 -83.9940 90° East  Level Estimated
01:26PM 35.8110 -83.9940 90° East  Level Estimated
01:27PM 35.8110 -83.9940 90° East  Level Estimated